sensor_id;sensor_type;location;lat;lon;timestamp;P1;durP1;ratioP1;P2;durP2;ratioP2
76131;SDS011;64877;50.994;13.650;2023-07-29T00:01:57;2.55;;;1.00;;
76131;SDS011;64877;50.994;13.650;2023-07-29T00:04:23;1.80;;;0.90;;
76131;SDS011;64877;50.994;13.650;2023-07-29T00:06:48;1.95;;;1.10;;
76131;SDS011;64877;50.994;13.650;2023-07-29T00:09:14;2.55;;;1.10;;
76131;SDS011;64877;50.994;13.650;2023-07-29T00:11:39;1.73;;;0.98;;
76131;SDS011;64877;50.994;13.650;2023-07-29T00:14:05;2.72;;;1.40;;
76131;SDS011;64877;50.994;13.650;2023-07-29T00:16:30;1.75;;;0.88;;
76131;SDS011;64877;50.994;13.650;2023-07-29T00:18:56;4.10;;;1.38;;
76131;SDS011;64877;50.994;13.650;2023-07-29T00:21:21;2.65;;;1.30;;
76131;SDS011;64877;50.994;13.650;2023-07-29T00:23:46;2.20;;;1.00;;
76131;SDS011;64877;50.994;13.650;2023-07-29T00:26:12;2.42;;;1.05;;
76131;SDS011;64877;50.994;13.650;2023-07-29T00:28:37;2.60;;;0.98;;
76131;SDS011;64877;50.994;13.650;2023-07-29T00:31:04;2.60;;;1.08;;
76131;SDS011;64877;50.994;13.650;2023-07-29T00:33:29;2.53;;;1.15;;
76131;SDS011;64877;50.994;13.650;2023-07-29T00:35:54;2.50;;;1.20;;
76131;SDS011;64877;50.994;13.650;2023-07-29T00:38:20;6.68;;;1.40;;
76131;SDS011;64877;50.994;13.650;2023-07-29T00:40:46;2.65;;;1.30;;
76131;SDS011;64877;50.994;13.650;2023-07-29T00:43:11;3.08;;;1.15;;
76131;SDS011;64877;50.994;13.650;2023-07-29T00:45:37;3.53;;;1.20;;
76131;SDS011;64877;50.994;13.650;2023-07-29T00:48:07;3.38;;;1.20;;
76131;SDS011;64877;50.994;13.650;2023-07-29T00:50:32;2.00;;;1.10;;
76131;SDS011;64877;50.994;13.650;2023-07-29T00:52:59;2.22;;;1.20;;
76131;SDS011;64877;50.994;13.650;2023-07-29T00:55:25;2.03;;;1.23;;
76131;SDS011;64877;50.994;13.650;2023-07-29T00:57:52;3.30;;;1.20;;
76131;SDS011;64877;50.994;13.650;2023-07-29T01:00:19;2.20;;;1.23;;
76131;SDS011;64877;50.994;13.650;2023-07-29T01:02:45;2.50;;;1.50;;
76131;SDS011;64877;50.994;13.650;2023-07-29T01:05:12;2.30;;;1.33;;
76131;SDS011;64877;50.994;13.650;2023-07-29T01:08:06;3.22;;;1.35;;
76131;SDS011;64877;50.994;13.650;2023-07-29T01:10:57;4.03;;;1.33;;
76131;SDS011;64877;50.994;13.650;2023-07-29T01:14:16;3.15;;;1.33;;
76131;SDS011;64877;50.994;13.650;2023-07-29T01:16:35;2.40;;;1.00;;
76131;SDS011;64877;50.994;13.650;2023-07-29T01:19:04;2.10;;;0.95;;
76131;SDS011;64877;50.994;13.650;2023-07-29T01:21:32;2.20;;;1.35;;
76131;SDS011;64877;50.994;13.650;2023-07-29T01:24:00;4.50;;;1.15;;
76131;SDS011;64877;50.994;13.650;2023-07-29T01:26:25;2.72;;;1.00;;
76131;SDS011;64877;50.994;13.650;2023-07-29T01:28:51;1.77;;;1.10;;
76131;SDS011;64877;50.994;13.650;2023-07-29T01:31:20;1.77;;;0.90;;
76131;SDS011;64877;50.994;13.650;2023-07-29T01:33:53;2.03;;;1.17;;
76131;SDS011;64877;50.994;13.650;2023-07-29T01:36:27;2.38;;;1.10;;
76131;SDS011;64877;50.994;13.650;2023-07-29T01:38:55;1.75;;;1.08;;
76131;SDS011;64877;50.994;13.650;2023-07-29T01:41:22;2.15;;;1.00;;
76131;SDS011;64877;50.994;13.650;2023-07-29T01:43:50;2.20;;;1.10;;
76131;SDS011;64877;50.994;13.650;2023-07-29T01:46:17;2.03;;;1.13;;
76131;SDS011;64877;50.994;13.650;2023-07-29T01:48:42;3.03;;;1.05;;
76131;SDS011;64877;50.994;13.650;2023-07-29T01:51:10;1.63;;;1.02;;
76131;SDS011;64877;50.994;13.650;2023-07-29T01:53:37;2.35;;;0.85;;
76131;SDS011;64877;50.994;13.650;2023-07-29T01:56:02;1.63;;;0.82;;
76131;SDS011;64877;50.994;13.650;2023-07-29T01:58:28;1.60;;;0.88;;
76131;SDS011;64877;50.994;13.650;2023-07-29T02:00:53;1.67;;;0.98;;
76131;SDS011;64877;50.994;13.650;2023-07-29T02:03:19;1.60;;;0.80;;
76131;SDS011;64877;50.994;13.650;2023-07-29T02:05:44;2.58;;;1.02;;
76131;SDS011;64877;50.994;13.650;2023-07-29T02:08:10;1.80;;;0.90;;
76131;SDS011;64877;50.994;13.650;2023-07-29T02:10:36;1.98;;;0.90;;
76131;SDS011;64877;50.994;13.650;2023-07-29T02:13:02;2.35;;;0.80;;
76131;SDS011;64877;50.994;13.650;2023-07-29T02:15:28;2.58;;;1.10;;
76131;SDS011;64877;50.994;13.650;2023-07-29T02:17:54;2.17;;;1.00;;
76131;SDS011;64877;50.994;13.650;2023-07-29T02:20:20;3.20;;;1.25;;
76131;SDS011;64877;50.994;13.650;2023-07-29T02:22:45;2.58;;;0.90;;
76131;SDS011;64877;50.994;13.650;2023-07-29T02:25:11;2.67;;;1.00;;
76131;SDS011;64877;50.994;13.650;2023-07-29T02:27:36;2.00;;;0.70;;
76131;SDS011;64877;50.994;13.650;2023-07-29T02:30:02;3.10;;;0.95;;
76131;SDS011;64877;50.994;13.650;2023-07-29T02:32:28;1.58;;;0.90;;
76131;SDS011;64877;50.994;13.650;2023-07-29T02:34:54;3.40;;;1.15;;
76131;SDS011;64877;50.994;13.650;2023-07-29T02:37:19;1.55;;;0.68;;
76131;SDS011;64877;50.994;13.650;2023-07-29T02:39:45;1.35;;;0.70;;
76131;SDS011;64877;50.994;13.650;2023-07-29T02:42:11;2.40;;;0.80;;
76131;SDS011;64877;50.994;13.650;2023-07-29T02:44:37;1.52;;;0.80;;
76131;SDS011;64877;50.994;13.650;2023-07-29T02:47:02;2.00;;;0.85;;
76131;SDS011;64877;50.994;13.650;2023-07-29T02:49:28;1.55;;;0.77;;
76131;SDS011;64877;50.994;13.650;2023-07-29T02:51:53;1.65;;;0.80;;
76131;SDS011;64877;50.994;13.650;2023-07-29T02:54:19;1.92;;;0.90;;
76131;SDS011;64877;50.994;13.650;2023-07-29T02:56:44;1.65;;;0.73;;
76131;SDS011;64877;50.994;13.650;2023-07-29T02:59:10;2.20;;;0.80;;
76131;SDS011;64877;50.994;13.650;2023-07-29T03:01:35;2.08;;;0.70;;
76131;SDS011;64877;50.994;13.650;2023-07-29T03:04:01;1.20;;;0.63;;
76131;SDS011;64877;50.994;13.650;2023-07-29T03:06:27;1.35;;;0.65;;
76131;SDS011;64877;50.994;13.650;2023-07-29T03:08:53;3.10;;;0.60;;
76131;SDS011;64877;50.994;13.650;2023-07-29T03:11:18;1.45;;;0.80;;
76131;SDS011;64877;50.994;13.650;2023-07-29T03:13:44;1.38;;;0.80;;
76131;SDS011;64877;50.994;13.650;2023-07-29T03:16:14;1.30;;;0.85;;
76131;SDS011;64877;50.994;13.650;2023-07-29T03:18:46;3.25;;;1.00;;
76131;SDS011;64877;50.994;13.650;2023-07-29T03:21:14;2.72;;;1.10;;
76131;SDS011;64877;50.994;13.650;2023-07-29T03:23:39;1.40;;;0.90;;
76131;SDS011;64877;50.994;13.650;2023-07-29T03:26:05;2.50;;;1.15;;
76131;SDS011;64877;50.994;13.650;2023-07-29T03:28:37;1.85;;;0.90;;
76131;SDS011;64877;50.994;13.650;2023-07-29T03:31:05;2.40;;;1.20;;
76131;SDS011;64877;50.994;13.650;2023-07-29T03:33:32;2.50;;;0.70;;
76131;SDS011;64877;50.994;13.650;2023-07-29T03:35:58;1.27;;;0.70;;
76131;SDS011;64877;50.994;13.650;2023-07-29T03:38:23;1.20;;;0.60;;
76131;SDS011;64877;50.994;13.650;2023-07-29T03:40:49;1.92;;;0.80;;
76131;SDS011;64877;50.994;13.650;2023-07-29T03:43:14;1.40;;;0.77;;
76131;SDS011;64877;50.994;13.650;2023-07-29T03:45:40;3.20;;;1.40;;
76131;SDS011;64877;50.994;13.650;2023-07-29T03:48:06;2.08;;;0.80;;
76131;SDS011;64877;50.994;13.650;2023-07-29T03:50:33;1.92;;;0.90;;
76131;SDS011;64877;50.994;13.650;2023-07-29T03:53:01;1.77;;;1.00;;
76131;SDS011;64877;50.994;13.650;2023-07-29T03:55:27;1.45;;;0.82;;
76131;SDS011;64877;50.994;13.650;2023-07-29T03:57:54;1.95;;;0.77;;
76131;SDS011;64877;50.994;13.650;2023-07-29T04:00:21;2.83;;;1.00;;
76131;SDS011;64877;50.994;13.650;2023-07-29T04:02:47;2.58;;;1.20;;
76131;SDS011;64877;50.994;13.650;2023-07-29T04:05:13;3.13;;;1.08;;
76131;SDS011;64877;50.994;13.650;2023-07-29T04:07:38;3.28;;;1.50;;
76131;SDS011;64877;50.994;13.650;2023-07-29T04:10:05;2.60;;;1.08;;
76131;SDS011;64877;50.994;13.650;2023-07-29T04:12:31;5.43;;;1.10;;
76131;SDS011;64877;50.994;13.650;2023-07-29T04:14:56;3.67;;;1.00;;
76131;SDS011;64877;50.994;13.650;2023-07-29T04:17:22;2.10;;;0.93;;
76131;SDS011;64877;50.994;13.650;2023-07-29T04:19:47;2.17;;;1.00;;
76131;SDS011;64877;50.994;13.650;2023-07-29T04:22:14;9.15;;;1.75;;
76131;SDS011;64877;50.994;13.650;2023-07-29T04:24:40;4.10;;;1.45;;
76131;SDS011;64877;50.994;13.650;2023-07-29T04:27:06;2.42;;;1.05;;
76131;SDS011;64877;50.994;13.650;2023-07-29T04:29:31;2.05;;;1.00;;
76131;SDS011;64877;50.994;13.650;2023-07-29T04:31:57;5.60;;;1.45;;
76131;SDS011;64877;50.994;13.650;2023-07-29T04:34:22;2.03;;;0.93;;
76131;SDS011;64877;50.994;13.650;2023-07-29T04:36:48;3.03;;;0.98;;
76131;SDS011;64877;50.994;13.650;2023-07-29T04:39:14;3.53;;;1.20;;
76131;SDS011;64877;50.994;13.650;2023-07-29T04:41:40;3.85;;;1.40;;
76131;SDS011;64877;50.994;13.650;2023-07-29T04:44:06;9.93;;;1.20;;
76131;SDS011;64877;50.994;13.650;2023-07-29T04:46:32;1.90;;;0.77;;
76131;SDS011;64877;50.994;13.650;2023-07-29T04:48:57;2.35;;;1.17;;
76131;SDS011;64877;50.994;13.650;2023-07-29T04:51:23;1.60;;;0.90;;
76131;SDS011;64877;50.994;13.650;2023-07-29T04:53:48;5.00;;;1.23;;
76131;SDS011;64877;50.994;13.650;2023-07-29T04:56:14;1.58;;;0.52;;
76131;SDS011;64877;50.994;13.650;2023-07-29T04:58:40;2.50;;;0.93;;
76131;SDS011;64877;50.994;13.650;2023-07-29T05:01:06;2.15;;;0.88;;
76131;SDS011;64877;50.994;13.650;2023-07-29T05:03:31;2.28;;;0.80;;
76131;SDS011;64877;50.994;13.650;2023-07-29T05:05:57;2.35;;;0.88;;
76131;SDS011;64877;50.994;13.650;2023-07-29T05:08:26;4.15;;;0.90;;
76131;SDS011;64877;50.994;13.650;2023-07-29T05:10:52;1.45;;;0.70;;
76131;SDS011;64877;50.994;13.650;2023-07-29T05:13:18;1.52;;;0.63;;
76131;SDS011;64877;50.994;13.650;2023-07-29T05:15:44;1.20;;;0.60;;
76131;SDS011;64877;50.994;13.650;2023-07-29T05:18:10;2.88;;;0.68;;
76131;SDS011;64877;50.994;13.650;2023-07-29T05:20:35;1.55;;;0.70;;
76131;SDS011;64877;50.994;13.650;2023-07-29T05:23:01;1.02;;;0.50;;
76131;SDS011;64877;50.994;13.650;2023-07-29T05:25:27;1.00;;;0.55;;
76131;SDS011;64877;50.994;13.650;2023-07-29T05:27:52;1.85;;;0.60;;
76131;SDS011;64877;50.994;13.650;2023-07-29T05:30:18;1.30;;;0.60;;
76131;SDS011;64877;50.994;13.650;2023-07-29T05:32:44;1.15;;;0.45;;
76131;SDS011;64877;50.994;13.650;2023-07-29T05:35:09;1.38;;;0.77;;
76131;SDS011;64877;50.994;13.650;2023-07-29T05:37:39;1.60;;;0.85;;
76131;SDS011;64877;50.994;13.650;2023-07-29T05:40:07;3.88;;;0.60;;
76131;SDS011;64877;50.994;13.650;2023-07-29T05:42:37;1.60;;;0.60;;
76131;SDS011;64877;50.994;13.650;2023-07-29T05:45:03;1.77;;;0.73;;
76131;SDS011;64877;50.994;13.650;2023-07-29T05:47:29;1.50;;;0.60;;
76131;SDS011;64877;50.994;13.650;2023-07-29T05:49:54;1.00;;;0.52;;
76131;SDS011;64877;50.994;13.650;2023-07-29T05:52:19;1.10;;;0.50;;
76131;SDS011;64877;50.994;13.650;2023-07-29T05:54:45;3.13;;;0.82;;
76131;SDS011;64877;50.994;13.650;2023-07-29T05:57:11;2.22;;;0.70;;
76131;SDS011;64877;50.994;13.650;2023-07-29T05:59:37;1.52;;;1.00;;
76131;SDS011;64877;50.994;13.650;2023-07-29T06:02:02;1.15;;;0.55;;
76131;SDS011;64877;50.994;13.650;2023-07-29T06:04:28;2.05;;;0.88;;
76131;SDS011;64877;50.994;13.650;2023-07-29T06:06:54;1.55;;;0.57;;
76131;SDS011;64877;50.994;13.650;2023-07-29T06:09:21;1.38;;;0.38;;
76131;SDS011;64877;50.994;13.650;2023-07-29T06:11:47;1.35;;;0.60;;
76131;SDS011;64877;50.994;13.650;2023-07-29T06:14:12;3.08;;;0.80;;
76131;SDS011;64877;50.994;13.650;2023-07-29T06:16:40;0.98;;;0.52;;
76131;SDS011;64877;50.994;13.650;2023-07-29T06:19:06;1.95;;;0.70;;
76131;SDS011;64877;50.994;13.650;2023-07-29T06:21:34;1.33;;;0.50;;
76131;SDS011;64877;50.994;13.650;2023-07-29T06:24:00;2.35;;;0.70;;
76131;SDS011;64877;50.994;13.650;2023-07-29T06:26:26;1.70;;;0.73;;
76131;SDS011;64877;50.994;13.650;2023-07-29T06:28:52;0.90;;;0.40;;
76131;SDS011;64877;50.994;13.650;2023-07-29T06:31:17;1.00;;;0.50;;
76131;SDS011;64877;50.994;13.650;2023-07-29T06:33:43;1.67;;;0.60;;
76131;SDS011;64877;50.994;13.650;2023-07-29T06:36:08;3.25;;;0.85;;
76131;SDS011;64877;50.994;13.650;2023-07-29T06:38:33;1.63;;;0.82;;
76131;SDS011;64877;50.994;13.650;2023-07-29T06:40:59;1.63;;;0.70;;
76131;SDS011;64877;50.994;13.650;2023-07-29T06:43:24;1.67;;;0.80;;
76131;SDS011;64877;50.994;13.650;2023-07-29T06:45:50;4.60;;;1.13;;
76131;SDS011;64877;50.994;13.650;2023-07-29T06:48:16;1.55;;;0.70;;
76131;SDS011;64877;50.994;13.650;2023-07-29T06:50:42;1.45;;;0.70;;
76131;SDS011;64877;50.994;13.650;2023-07-29T06:53:08;1.70;;;0.80;;
76131;SDS011;64877;50.994;13.650;2023-07-29T06:55:34;1.85;;;0.52;;
76131;SDS011;64877;50.994;13.650;2023-07-29T06:57:59;7.88;;;1.02;;
76131;SDS011;64877;50.994;13.650;2023-07-29T07:00:25;1.73;;;0.55;;
76131;SDS011;64877;50.994;13.650;2023-07-29T07:02:50;2.55;;;0.77;;
76131;SDS011;64877;50.994;13.650;2023-07-29T07:05:16;3.78;;;0.60;;
76131;SDS011;64877;50.994;13.650;2023-07-29T07:07:41;2.90;;;0.70;;
76131;SDS011;64877;50.994;13.650;2023-07-29T07:10:07;0.98;;;0.55;;
76131;SDS011;64877;50.994;13.650;2023-07-29T07:12:33;1.52;;;0.80;;
76131;SDS011;64877;50.994;13.650;2023-07-29T07:14:59;1.50;;;0.63;;
76131;SDS011;64877;50.994;13.650;2023-07-29T07:17:25;1.83;;;0.77;;
76131;SDS011;64877;50.994;13.650;2023-07-29T07:19:50;1.60;;;0.68;;
76131;SDS011;64877;50.994;13.650;2023-07-29T07:22:16;1.80;;;0.82;;
76131;SDS011;64877;50.994;13.650;2023-07-29T07:24:41;1.27;;;0.60;;
76131;SDS011;64877;50.994;13.650;2023-07-29T07:27:07;2.40;;;0.98;;
76131;SDS011;64877;50.994;13.650;2023-07-29T07:29:32;3.08;;;0.70;;
76131;SDS011;64877;50.994;13.650;2023-07-29T07:31:58;1.60;;;0.65;;
76131;SDS011;64877;50.994;13.650;2023-07-29T07:34:23;0.80;;;0.40;;
76131;SDS011;64877;50.994;13.650;2023-07-29T07:36:49;1.15;;;0.60;;
76131;SDS011;64877;50.994;13.650;2023-07-29T07:39:15;2.15;;;0.80;;
76131;SDS011;64877;50.994;13.650;2023-07-29T07:41:41;2.88;;;0.60;;
76131;SDS011;64877;50.994;13.650;2023-07-29T07:44:07;3.22;;;0.50;;
76131;SDS011;64877;50.994;13.650;2023-07-29T07:46:33;0.93;;;0.50;;
76131;SDS011;64877;50.994;13.650;2023-07-29T07:48:58;1.00;;;0.52;;
76131;SDS011;64877;50.994;13.650;2023-07-29T07:51:24;1.27;;;0.70;;
76131;SDS011;64877;50.994;13.650;2023-07-29T07:53:49;1.33;;;0.63;;
76131;SDS011;64877;50.994;13.650;2023-07-29T07:56:15;0.90;;;0.50;;
76131;SDS011;64877;50.994;13.650;2023-07-29T07:58:40;2.00;;;0.70;;
76131;SDS011;64877;50.994;13.650;2023-07-29T08:01:06;7.75;;;1.20;;
76131;SDS011;64877;50.994;13.650;2023-07-29T08:03:33;5.80;;;1.10;;
76131;SDS011;64877;50.994;13.650;2023-07-29T08:06:00;2.20;;;0.50;;
76131;SDS011;64877;50.994;13.650;2023-07-29T08:08:26;5.55;;;1.50;;
76131;SDS011;64877;50.994;13.650;2023-07-29T08:10:52;1.65;;;0.57;;
76131;SDS011;64877;50.994;13.650;2023-07-29T08:13:21;1.75;;;0.43;;
76131;SDS011;64877;50.994;13.650;2023-07-29T08:15:47;0.90;;;0.55;;
76131;SDS011;64877;50.994;13.650;2023-07-29T08:18:14;1.02;;;0.60;;
76131;SDS011;64877;50.994;13.650;2023-07-29T08:20:40;1.42;;;0.73;;
76131;SDS011;64877;50.994;13.650;2023-07-29T08:23:06;1.27;;;0.60;;
76131;SDS011;64877;50.994;13.650;2023-07-29T08:25:31;1.00;;;0.40;;
76131;SDS011;64877;50.994;13.650;2023-07-29T08:27:57;1.60;;;0.57;;
76131;SDS011;64877;50.994;13.650;2023-07-29T08:30:22;0.88;;;0.50;;
76131;SDS011;64877;50.994;13.650;2023-07-29T08:32:47;1.85;;;0.40;;
76131;SDS011;64877;50.994;13.650;2023-07-29T08:35:13;1.13;;;0.50;;
76131;SDS011;64877;50.994;13.650;2023-07-29T08:37:38;0.90;;;0.50;;
76131;SDS011;64877;50.994;13.650;2023-07-29T08:40:04;1.27;;;0.60;;
76131;SDS011;64877;50.994;13.650;2023-07-29T08:42:31;0.90;;;0.40;;
76131;SDS011;64877;50.994;13.650;2023-07-29T08:44:59;1.00;;;0.50;;
76131;SDS011;64877;50.994;13.650;2023-07-29T08:47:31;1.55;;;0.70;;
76131;SDS011;64877;50.994;13.650;2023-07-29T08:49:56;2.03;;;0.60;;
76131;SDS011;64877;50.994;13.650;2023-07-29T08:52:24;1.65;;;0.70;;
76131;SDS011;64877;50.994;13.650;2023-07-29T08:57:17;2.97;;;0.60;;
76131;SDS011;64877;50.994;13.650;2023-07-29T08:59:45;2.22;;;0.73;;
76131;SDS011;64877;50.994;13.650;2023-07-29T09:02:11;1.77;;;0.70;;
76131;SDS011;64877;50.994;13.650;2023-07-29T09:04:37;1.67;;;0.80;;
76131;SDS011;64877;50.994;13.650;2023-07-29T09:07:02;2.95;;;0.90;;
76131;SDS011;64877;50.994;13.650;2023-07-29T09:09:29;1.17;;;0.68;;
76131;SDS011;64877;50.994;13.650;2023-07-29T09:11:54;1.20;;;0.60;;
76131;SDS011;64877;50.994;13.650;2023-07-29T09:14:20;1.42;;;0.60;;
76131;SDS011;64877;50.994;13.650;2023-07-29T09:16:45;2.60;;;0.70;;
76131;SDS011;64877;50.994;13.650;2023-07-29T09:19:11;2.17;;;0.80;;
76131;SDS011;64877;50.994;13.650;2023-07-29T09:21:40;2.00;;;0.82;;
76131;SDS011;64877;50.994;13.650;2023-07-29T09:24:05;2.70;;;1.20;;
76131;SDS011;64877;50.994;13.650;2023-07-29T09:26:33;1.30;;;0.70;;
76131;SDS011;64877;50.994;13.650;2023-07-29T09:28:59;1.50;;;0.85;;
76131;SDS011;64877;50.994;13.650;2023-07-29T09:31:25;2.20;;;0.88;;
76131;SDS011;64877;50.994;13.650;2023-07-29T09:33:56;2.10;;;0.70;;
76131;SDS011;64877;50.994;13.650;2023-07-29T09:36:23;1.65;;;0.80;;
76131;SDS011;64877;50.994;13.650;2023-07-29T09:38:51;4.03;;;0.63;;
76131;SDS011;64877;50.994;13.650;2023-07-29T09:41:18;3.95;;;0.82;;
76131;SDS011;64877;50.994;13.650;2023-07-29T09:43:43;1.90;;;0.65;;
76131;SDS011;64877;50.994;13.650;2023-07-29T09:46:08;1.65;;;0.77;;
76131;SDS011;64877;50.994;13.650;2023-07-29T09:48:34;1.90;;;0.60;;
76131;SDS011;64877;50.994;13.650;2023-07-29T09:51:11;2.88;;;1.02;;
76131;SDS011;64877;50.994;13.650;2023-07-29T09:53:45;1.63;;;0.90;;
76131;SDS011;64877;50.994;13.650;2023-07-29T09:56:12;1.88;;;0.63;;
76131;SDS011;64877;50.994;13.650;2023-07-29T09:58:38;5.00;;;1.50;;
76131;SDS011;64877;50.994;13.650;2023-07-29T10:01:07;3.92;;;1.10;;
76131;SDS011;64877;50.994;13.650;2023-07-29T10:03:33;8.10;;;2.53;;
76131;SDS011;64877;50.994;13.650;2023-07-29T10:06:04;10.57;;;4.90;;
76131;SDS011;64877;50.994;13.650;2023-07-29T10:08:31;4.65;;;2.60;;
76131;SDS011;64877;50.994;13.650;2023-07-29T10:11:00;5.82;;;1.55;;
76131;SDS011;64877;50.994;13.650;2023-07-29T10:13:26;4.80;;;2.10;;
76131;SDS011;64877;50.994;13.650;2023-07-29T10:15:55;3.13;;;1.45;;
76131;SDS011;64877;50.994;13.650;2023-07-29T10:18:22;2.22;;;1.00;;
76131;SDS011;64877;50.994;13.650;2023-07-29T10:20:50;1.70;;;0.80;;
76131;SDS011;64877;50.994;13.650;2023-07-29T10:23:21;3.00;;;1.50;;
76131;SDS011;64877;50.994;13.650;2023-07-29T10:26:09;3.47;;;1.23;;
76131;SDS011;64877;50.994;13.650;2023-07-29T10:28:35;4.13;;;1.60;;
76131;SDS011;64877;50.994;13.650;2023-07-29T10:31:11;6.13;;;1.58;;
76131;SDS011;64877;50.994;13.650;2023-07-29T10:33:38;8.68;;;3.03;;
76131;SDS011;64877;50.994;13.650;2023-07-29T10:36:12;13.68;;;4.25;;
76131;SDS011;64877;50.994;13.650;2023-07-29T10:38:45;5.93;;;3.00;;
76131;SDS011;64877;50.994;13.650;2023-07-29T10:41:10;8.23;;;3.85;;
76131;SDS011;64877;50.994;13.650;2023-07-29T10:43:38;4.75;;;2.08;;
76131;SDS011;64877;50.994;13.650;2023-07-29T10:46:16;4.10;;;2.22;;
76131;SDS011;64877;50.994;13.650;2023-07-29T10:48:54;7.88;;;2.75;;
76131;SDS011;64877;50.994;13.650;2023-07-29T10:51:31;7.53;;;3.00;;
76131;SDS011;64877;50.994;13.650;2023-07-29T10:54:12;5.18;;;2.95;;
76131;SDS011;64877;50.994;13.650;2023-07-29T10:56:48;2.90;;;1.65;;
76131;SDS011;64877;50.994;13.650;2023-07-29T11:02:31;4.47;;;1.42;;
76131;SDS011;64877;50.994;13.650;2023-07-29T11:04:49;4.03;;;1.73;;
76131;SDS011;64877;50.994;13.650;2023-07-29T11:09:42;5.32;;;1.33;;
76131;SDS011;64877;50.994;13.650;2023-07-29T11:18:19;2.30;;;1.33;;
76131;SDS011;64877;50.994;13.650;2023-07-29T11:22:56;3.40;;;0.93;;
76131;SDS011;64877;50.994;13.650;2023-07-29T11:25:23;4.03;;;1.40;;
76131;SDS011;64877;50.994;13.650;2023-07-29T11:27:55;5.93;;;1.15;;
76131;SDS011;64877;50.994;13.650;2023-07-29T11:30:22;4.10;;;0.85;;
76131;SDS011;64877;50.994;13.650;2023-07-29T11:32:58;2.00;;;0.90;;
76131;SDS011;64877;50.994;13.650;2023-07-29T11:35:24;4.07;;;0.95;;
76131;SDS011;64877;50.994;13.650;2023-07-29T11:37:50;2.72;;;1.52;;
76131;SDS011;64877;50.994;13.650;2023-07-29T11:40:18;2.00;;;1.20;;
76131;SDS011;64877;50.994;13.650;2023-07-29T11:42:45;2.75;;;1.80;;
76131;SDS011;64877;50.994;13.650;2023-07-29T11:45:12;2.25;;;1.50;;
76131;SDS011;64877;50.994;13.650;2023-07-29T11:47:38;2.47;;;1.23;;
76131;SDS011;64877;50.994;13.650;2023-07-29T11:50:04;2.53;;;1.17;;
76131;SDS011;64877;50.994;13.650;2023-07-29T11:52:32;4.40;;;2.15;;
76131;SDS011;64877;50.994;13.650;2023-07-29T11:54:59;4.95;;;1.10;;
76131;SDS011;64877;50.994;13.650;2023-07-29T11:57:26;8.68;;;0.90;;
76131;SDS011;64877;50.994;13.650;2023-07-29T11:59:51;2.63;;;1.17;;
76131;SDS011;64877;50.994;13.650;2023-07-29T12:02:20;4.10;;;0.90;;
76131;SDS011;64877;50.994;13.650;2023-07-29T12:04:48;3.55;;;1.60;;
76131;SDS011;64877;50.994;13.650;2023-07-29T12:07:14;4.28;;;1.73;;
76131;SDS011;64877;50.994;13.650;2023-07-29T12:09:42;6.15;;;1.92;;
76131;SDS011;64877;50.994;13.650;2023-07-29T12:12:08;4.88;;;1.77;;
76131;SDS011;64877;50.994;13.650;2023-07-29T12:14:34;2.38;;;1.27;;
76131;SDS011;64877;50.994;13.650;2023-07-29T12:17:04;3.05;;;1.40;;
76131;SDS011;64877;50.994;13.650;2023-07-29T12:19:34;1.67;;;0.90;;
76131;SDS011;64877;50.994;13.650;2023-07-29T12:22:01;2.58;;;0.70;;
76131;SDS011;64877;50.994;13.650;2023-07-29T12:24:31;2.63;;;0.82;;
76131;SDS011;64877;50.994;13.650;2023-07-29T12:27:01;1.67;;;0.60;;
76131;SDS011;64877;50.994;13.650;2023-07-29T12:29:26;3.15;;;0.77;;
76131;SDS011;64877;50.994;13.650;2023-07-29T12:31:59;2.03;;;0.75;;
76131;SDS011;64877;50.994;13.650;2023-07-29T12:34:26;2.05;;;0.70;;
76131;SDS011;64877;50.994;13.650;2023-07-29T12:36:53;1.50;;;0.65;;
76131;SDS011;64877;50.994;13.650;2023-07-29T12:41:53;1.73;;;0.70;;
76131;SDS011;64877;50.994;13.650;2023-07-29T12:44:24;2.65;;;0.73;;
76131;SDS011;64877;50.994;13.650;2023-07-29T12:47:08;2.25;;;0.90;;
76131;SDS011;64877;50.994;13.650;2023-07-29T12:49:34;1.75;;;0.70;;
76131;SDS011;64877;50.994;13.650;2023-07-29T12:52:00;1.75;;;0.80;;
76131;SDS011;64877;50.994;13.650;2023-07-29T12:54:25;1.38;;;0.57;;
76131;SDS011;64877;50.994;13.650;2023-07-29T12:56:51;1.92;;;0.90;;
76131;SDS011;64877;50.994;13.650;2023-07-29T12:59:17;2.33;;;0.80;;
76131;SDS011;64877;50.994;13.650;2023-07-29T13:01:42;3.25;;;1.55;;
76131;SDS011;64877;50.994;13.650;2023-07-29T13:04:09;7.60;;;4.72;;
76131;SDS011;64877;50.994;13.650;2023-07-29T13:06:35;2.00;;;0.90;;
76131;SDS011;64877;50.994;13.650;2023-07-29T13:09:00;0.95;;;0.60;;
76131;SDS011;64877;50.994;13.650;2023-07-29T13:11:25;1.48;;;0.60;;
76131;SDS011;64877;50.994;13.650;2023-07-29T13:13:51;0.88;;;0.40;;
76131;SDS011;64877;50.994;13.650;2023-07-29T13:16:16;1.30;;;0.50;;
76131;SDS011;64877;50.994;13.650;2023-07-29T13:18:43;1.58;;;0.70;;
76131;SDS011;64877;50.994;13.650;2023-07-29T13:21:09;1.20;;;0.60;;
76131;SDS011;64877;50.994;13.650;2023-07-29T13:23:34;1.40;;;0.70;;
76131;SDS011;64877;50.994;13.650;2023-07-29T13:26:00;1.70;;;0.70;;
76131;SDS011;64877;50.994;13.650;2023-07-29T13:28:26;1.90;;;0.75;;
76131;SDS011;64877;50.994;13.650;2023-07-29T13:30:51;1.73;;;0.70;;
76131;SDS011;64877;50.994;13.650;2023-07-29T13:33:17;3.85;;;0.60;;
76131;SDS011;64877;50.994;13.650;2023-07-29T13:35:42;5.97;;;0.57;;
76131;SDS011;64877;50.994;13.650;2023-07-29T13:38:07;1.42;;;0.60;;
76131;SDS011;64877;50.994;13.650;2023-07-29T13:40:33;1.52;;;0.70;;
76131;SDS011;64877;50.994;13.650;2023-07-29T13:42:59;2.72;;;0.73;;
76131;SDS011;64877;50.994;13.650;2023-07-29T13:45:25;1.33;;;0.73;;
76131;SDS011;64877;50.994;13.650;2023-07-29T13:47:50;1.30;;;0.60;;
76131;SDS011;64877;50.994;13.650;2023-07-29T13:50:19;1.40;;;0.60;;
76131;SDS011;64877;50.994;13.650;2023-07-29T13:52:44;1.50;;;0.68;;
76131;SDS011;64877;50.994;13.650;2023-07-29T13:55:10;1.63;;;0.60;;
76131;SDS011;64877;50.994;13.650;2023-07-29T13:57:36;1.15;;;0.50;;
76131;SDS011;64877;50.994;13.650;2023-07-29T14:00:04;1.48;;;0.50;;
76131;SDS011;64877;50.994;13.650;2023-07-29T14:02:36;0.98;;;0.50;;
76131;SDS011;64877;50.994;13.650;2023-07-29T14:05:02;1.30;;;0.65;;
76131;SDS011;64877;50.994;13.650;2023-07-29T14:07:27;1.10;;;0.60;;
76131;SDS011;64877;50.994;13.650;2023-07-29T14:09:53;1.80;;;0.80;;
76131;SDS011;64877;50.994;13.650;2023-07-29T14:12:18;1.23;;;0.60;;
76131;SDS011;64877;50.994;13.650;2023-07-29T14:14:44;1.33;;;0.70;;
76131;SDS011;64877;50.994;13.650;2023-07-29T14:17:09;1.80;;;0.90;;
76131;SDS011;64877;50.994;13.650;2023-07-29T14:19:35;6.60;;;0.90;;
76131;SDS011;64877;50.994;13.650;2023-07-29T14:22:02;1.33;;;0.70;;
76131;SDS011;64877;50.994;13.650;2023-07-29T14:24:27;1.40;;;0.57;;
76131;SDS011;64877;50.994;13.650;2023-07-29T14:26:53;1.20;;;0.60;;
76131;SDS011;64877;50.994;13.650;2023-07-29T14:29:18;1.40;;;0.70;;
76131;SDS011;64877;50.994;13.650;2023-07-29T14:31:44;1.30;;;0.50;;
76131;SDS011;64877;50.994;13.650;2023-07-29T14:34:12;1.67;;;0.43;;
76131;SDS011;64877;50.994;13.650;2023-07-29T14:36:38;1.50;;;0.70;;
76131;SDS011;64877;50.994;13.650;2023-07-29T14:39:04;1.42;;;0.60;;
76131;SDS011;64877;50.994;13.650;2023-07-29T14:41:30;1.95;;;0.63;;
76131;SDS011;64877;50.994;13.650;2023-07-29T14:43:56;1.50;;;0.70;;
76131;SDS011;64877;50.994;13.650;2023-07-29T14:46:21;2.45;;;0.70;;
76131;SDS011;64877;50.994;13.650;2023-07-29T14:48:47;1.52;;;0.63;;
76131;SDS011;64877;50.994;13.650;2023-07-29T14:51:13;1.15;;;0.50;;